createdAt,value
2018-05-10T00:00:52.127Z,932.09
2018-05-10T00:02:00.106Z,932.11
2018-05-10T00:03:08.164Z,932.09
2018-05-10T00:04:16.228Z,932.08
2018-05-10T00:05:24.296Z,932.09
2018-05-10T00:06:32.441Z,932.09
2018-05-10T00:07:40.413Z,932.10
2018-05-10T00:08:48.472Z,932.08
2018-05-10T00:09:56.538Z,932.11
2018-05-10T00:11:04.597Z,932.07
2018-05-10T00:12:12.778Z,932.07
2018-05-10T00:13:20.698Z,932.11
2018-05-10T00:14:28.772Z,932.12
2018-05-10T00:15:36.831Z,932.06
2018-05-10T00:16:44.879Z,932.08
2018-05-10T00:17:53.053Z,932.06
2018-05-10T00:19:01.014Z,932.04
2018-05-10T00:20:09.076Z,932.04
2018-05-10T00:21:17.142Z,932.03
2018-05-10T00:22:25.196Z,932.04
2018-05-10T00:23:33.349Z,931.99
2018-05-10T00:24:41.302Z,931.99
2018-05-10T00:25:49.382Z,932.03
2018-05-10T00:26:57.446Z,931.99
2018-05-10T00:28:05.506Z,932.00
2018-05-10T00:29:13.653Z,932.01
2018-05-10T00:30:21.602Z,932.03
2018-05-10T00:31:29.684Z,932.03
2018-05-10T00:32:37.742Z,932.03
2018-05-10T00:33:45.803Z,932.04
2018-05-10T00:34:53.944Z,932.05
2018-05-10T00:36:01.898Z,932.06
2018-05-10T00:37:09.994Z,932.09
2018-05-10T00:38:18.060Z,932.05
2018-05-10T00:39:26.115Z,932.09
2018-05-10T00:40:34.275Z,932.07
2018-05-10T00:41:42.223Z,932.06
2018-05-10T00:42:50.277Z,932.09
2018-05-10T00:43:58.351Z,932.05
2018-05-10T00:45:06.404Z,932.01
2018-05-10T00:46:14.577Z,931.99
2018-05-10T00:47:22.530Z,932.02
2018-05-10T00:48:30.597Z,932.02
2018-05-10T00:49:38.648Z,931.98
2018-05-10T00:50:46.707Z,932.06
2018-05-10T00:51:54.875Z,932.02
2018-05-10T00:53:02.832Z,932.02
2018-05-10T00:54:10.897Z,932.01
2018-05-10T00:55:18.950Z,932.03
2018-05-10T00:56:27.022Z,932.03
2018-05-10T00:57:35.174Z,932.05
2018-05-10T00:58:43.139Z,932.06
2018-05-10T00:59:51.211Z,932.06
2018-05-10T01:00:59.247Z,932.07
2018-05-10T01:02:07.331Z,932.08
2018-05-10T01:03:15.481Z,932.05
2018-05-10T01:04:23.440Z,932.07
2018-05-10T01:05:31.518Z,932.06
2018-05-10T01:06:39.573Z,932.06
2018-05-10T01:07:47.660Z,932.07
2018-05-10T01:08:55.779Z,932.04
2018-05-10T01:10:03.740Z,932.03
2018-05-10T01:11:11.780Z,932.02
2018-05-10T01:12:19.865Z,932.06
2018-05-10T01:13:27.925Z,932.06
2018-05-10T01:14:36.090Z,932.06
2018-05-10T01:15:44.051Z,932.06
2018-05-10T01:16:52.086Z,932.06
2018-05-10T01:18:00.145Z,932.04
2018-05-10T01:19:08.204Z,932.03
2018-05-10T01:20:16.379Z,932.03
2018-05-10T01:21:24.353Z,932.04
2018-05-10T01:22:32.396Z,932.04
2018-05-10T01:23:40.464Z,932.08
2018-05-10T01:24:48.520Z,932.04
2018-05-10T01:25:56.698Z,932.07
2018-05-10T01:27:04.627Z,932.06
2018-05-10T01:28:12.686Z,932.01
2018-05-10T01:29:20.759Z,932.03
2018-05-10T01:30:28.834Z,932.04
2018-05-10T01:31:36.989Z,932.05
2018-05-10T01:32:44.955Z,932.01
2018-05-10T01:33:53.010Z,932.00
2018-05-10T01:35:01.065Z,931.98
2018-05-10T01:36:09.151Z,932.00
2018-05-10T01:37:17.418Z,931.97
2018-05-10T01:38:25.244Z,931.98
2018-05-10T01:39:33.386Z,932.00
2018-05-10T01:40:41.351Z,931.99
2018-05-10T01:41:49.428Z,932.02
2018-05-10T01:42:57.588Z,932.06
2018-05-10T01:44:05.556Z,932.06
2018-05-10T01:45:13.609Z,932.07
2018-05-10T01:46:21.713Z,932.09
2018-05-10T01:47:29.725Z,932.11
2018-05-10T01:48:37.872Z,932.11
2018-05-10T01:49:45.852Z,932.09
2018-05-10T01:50:53.920Z,932.13
2018-05-10T01:52:01.956Z,932.15
2018-05-10T01:53:10.031Z,932.12
2018-05-10T01:54:18.188Z,932.10
2018-05-10T01:55:26.144Z,932.08
2018-05-10T01:56:34.211Z,932.07
2018-05-10T01:57:42.249Z,932.10
2018-05-10T01:58:50.335Z,932.11
2018-05-10T01:59:58.491Z,932.11
2018-05-10T02:01:06.460Z,932.13
2018-05-10T02:02:14.515Z,932.14
2018-05-10T02:03:22.582Z,932.16
2018-05-10T02:04:30.650Z,932.18
2018-05-10T02:05:38.792Z,932.17
2018-05-10T02:06:46.758Z,932.16
2018-05-10T02:07:54.820Z,932.16
2018-05-10T02:09:02.843Z,932.19
2018-05-10T02:10:10.938Z,932.19
2018-05-10T02:11:19.098Z,932.23
2018-05-10T02:12:27.022Z,932.22
2018-05-10T02:13:35.109Z,932.24
2018-05-10T02:14:43.218Z,932.22
2018-05-10T02:15:51.234Z,932.26
2018-05-10T02:16:59.386Z,932.26
2018-05-10T02:18:07.359Z,932.26
2018-05-10T02:19:15.420Z,932.25
2018-05-10T02:20:23.471Z,932.26
2018-05-10T02:21:31.501Z,932.27
2018-05-10T02:22:39.699Z,932.26
2018-05-10T02:23:47.657Z,932.29
2018-05-10T02:24:55.704Z,932.28
2018-05-10T02:26:03.772Z,932.33
2018-05-10T02:27:11.821Z,932.36
2018-05-10T02:28:19.986Z,932.41
2018-05-10T02:29:27.955Z,932.44
2018-05-10T02:30:36.019Z,932.50
2018-05-10T02:31:44.083Z,932.56
2018-05-10T02:32:52.095Z,932.66
2018-05-10T02:34:00.277Z,932.71
2018-05-10T02:35:08.255Z,932.79
2018-05-10T02:36:16.312Z,932.76
2018-05-10T02:37:24.371Z,932.76
2018-05-10T02:38:32.438Z,932.70
2018-05-10T02:39:40.597Z,932.72
2018-05-10T02:40:48.555Z,932.79
2018-05-10T02:41:56.600Z,932.83
2018-05-10T02:43:04.662Z,932.87
2018-05-10T02:44:12.725Z,932.92
2018-05-10T02:45:20.891Z,932.84
2018-05-10T02:46:28.916Z,932.88
2018-05-10T02:47:36.901Z,932.87
2018-05-10T02:48:44.976Z,932.93
2018-05-10T02:49:53.026Z,932.91
2018-05-10T02:51:01.185Z,932.92
2018-05-10T02:52:09.141Z,932.92
2018-05-10T02:53:17.217Z,932.93
2018-05-10T02:54:25.272Z,932.94
2018-05-10T02:55:33.327Z,932.98
2018-05-10T02:56:41.471Z,932.94
2018-05-10T02:57:49.443Z,932.91
2018-05-10T02:58:57.535Z,932.90
2018-05-10T03:00:05.565Z,932.87
2018-05-10T03:01:13.624Z,932.83
2018-05-10T03:02:21.755Z,932.80
2018-05-10T03:03:29.763Z,932.90
2018-05-10T03:04:37.864Z,932.92
2018-05-10T03:05:45.954Z,932.90
2018-05-10T03:06:53.945Z,932.93
2018-05-10T03:08:02.089Z,932.93
2018-05-10T03:09:10.065Z,932.95
2018-05-10T03:10:18.098Z,932.99
2018-05-10T03:11:26.163Z,933.02
2018-05-10T03:12:34.238Z,933.02
2018-05-10T03:13:42.389Z,933.02
2018-05-10T03:14:50.368Z,933.05
2018-05-10T03:15:58.411Z,933.08
2018-05-10T03:17:06.481Z,933.07
2018-05-10T03:18:14.539Z,933.06
2018-05-10T03:19:22.706Z,933.04
2018-05-10T03:20:30.658Z,933.06
2018-05-10T03:21:38.720Z,933.06
2018-05-10T03:22:46.778Z,933.04
2018-05-10T03:23:54.845Z,933.07
2018-05-10T03:25:03.015Z,933.06
2018-05-10T03:26:10.966Z,933.08
2018-05-10T03:27:19.021Z,933.07
2018-05-10T03:28:27.077Z,933.04
2018-05-10T03:29:35.141Z,933.07
2018-05-10T03:30:43.301Z,933.07
2018-05-10T03:31:51.268Z,933.06
2018-05-10T03:32:59.331Z,933.05
2018-05-10T03:34:07.513Z,933.09
2018-05-10T03:35:15.458Z,933.04
2018-05-10T03:36:23.610Z,933.06
2018-05-10T03:37:31.536Z,933.04
2018-05-10T03:38:39.633Z,933.00
2018-05-10T03:39:47.706Z,932.96
2018-05-10T03:40:55.753Z,933.02
2018-05-10T03:42:03.912Z,933.00
2018-05-10T03:43:11.844Z,932.98
2018-05-10T03:44:19.938Z,933.00
2018-05-10T03:45:27.977Z,933.00
2018-05-10T03:46:36.064Z,932.99
2018-05-10T03:47:44.214Z,932.97
2018-05-10T03:48:52.173Z,933.02
2018-05-10T03:50:00.233Z,932.97
2018-05-10T03:51:08.294Z,932.96
2018-05-10T03:52:16.359Z,932.98
2018-05-10T03:53:24.524Z,932.97
2018-05-10T03:54:32.461Z,932.94
2018-05-10T03:55:40.540Z,932.97
2018-05-10T03:56:48.607Z,932.95
2018-05-10T03:57:56.634Z,932.93
2018-05-10T03:59:04.817Z,932.95
2018-05-10T04:00:12.791Z,932.95
2018-05-10T04:01:20.843Z,932.94
2018-05-10T04:02:28.911Z,932.98
2018-05-10T04:03:36.951Z,932.99
2018-05-10T04:04:45.117Z,933.01
2018-05-10T04:05:53.092Z,933.00
2018-05-10T04:07:01.150Z,933.01
2018-05-10T04:08:09.217Z,933.06
2018-05-10T04:09:17.271Z,933.08
2018-05-10T04:10:25.422Z,933.09
2018-05-10T04:11:33.366Z,933.08
2018-05-10T04:12:41.421Z,933.12
2018-05-10T04:13:49.502Z,933.13
2018-05-10T04:14:57.563Z,933.11
2018-05-10T04:16:07.440Z,933.11
2018-05-10T04:17:13.935Z,933.08
2018-05-10T04:18:21.724Z,933.12
2018-05-10T04:19:29.783Z,933.10
2018-05-10T04:20:37.870Z,933.10
2018-05-10T04:21:46.038Z,933.08
2018-05-10T04:22:53.986Z,933.09
2018-05-10T04:24:02.029Z,933.04
2018-05-10T04:25:10.108Z,933.06
2018-05-10T04:26:18.166Z,933.08
2018-05-10T04:27:26.334Z,933.10
2018-05-10T04:28:34.271Z,933.12
2018-05-10T04:29:42.347Z,933.14
2018-05-10T04:30:50.413Z,933.14
2018-05-10T04:31:58.460Z,933.13
2018-05-10T04:33:06.840Z,933.18
2018-05-10T04:34:14.597Z,933.18
2018-05-10T04:35:22.637Z,933.21
2018-05-10T04:36:30.697Z,933.19
2018-05-10T04:37:38.780Z,933.20
2018-05-10T04:38:46.935Z,933.23
2018-05-10T04:39:55.433Z,933.24
2018-05-10T04:41:02.945Z,933.27
2018-05-10T04:42:11.020Z,933.28
2018-05-10T04:43:19.679Z,933.32
2018-05-10T04:44:27.249Z,933.28
2018-05-10T04:45:35.516Z,933.28
2018-05-10T04:46:43.257Z,933.29
2018-05-10T04:47:51.444Z,933.31
2018-05-10T04:48:59.368Z,933.35
2018-05-10T04:50:07.560Z,933.35
2018-05-10T04:51:15.498Z,933.37
2018-05-10T04:52:23.585Z,933.39
2018-05-10T04:53:31.632Z,933.37
2018-05-10T04:54:39.662Z,933.36
2018-05-10T04:55:47.846Z,933.35
2018-05-10T04:56:55.791Z,933.38
2018-05-10T04:58:03.859Z,933.40
2018-05-10T04:59:12.534Z,933.42
2018-05-10T05:00:20.005Z,933.43
2018-05-10T05:01:28.137Z,933.43
2018-05-10T05:02:36.091Z,933.44
2018-05-10T05:03:44.162Z,933.40
2018-05-10T05:04:52.197Z,933.43
2018-05-10T05:06:00.280Z,933.39
2018-05-10T05:07:08.963Z,933.43
2018-05-10T05:08:16.421Z,933.44
2018-05-10T05:09:26.119Z,933.47
2018-05-10T05:10:32.525Z,933.51
2018-05-10T05:11:40.576Z,933.50
2018-05-10T05:12:48.648Z,933.53
2018-05-10T05:13:56.716Z,933.53
2018-05-10T05:15:04.789Z,933.54
2018-05-10T05:16:13.199Z,933.55
2018-05-10T05:17:20.990Z,933.54
2018-05-10T05:18:29.057Z,933.56
2018-05-10T05:19:36.999Z,933.59
2018-05-10T05:20:45.099Z,933.58
2018-05-10T05:21:53.133Z,933.56
2018-05-10T05:23:01.300Z,933.60
2018-05-10T05:24:09.261Z,933.59
2018-05-10T05:25:17.335Z,933.56
2018-05-10T05:26:25.392Z,933.58
2018-05-10T05:27:33.438Z,933.60
2018-05-10T05:28:41.590Z,933.58
2018-05-10T05:29:49.564Z,933.64
2018-05-10T05:30:57.644Z,933.65
2018-05-10T05:32:05.705Z,933.69
2018-05-10T05:33:13.736Z,933.71
2018-05-10T05:34:21.892Z,933.68
2018-05-10T05:35:29.922Z,933.70
2018-05-10T05:36:37.981Z,933.67
2018-05-10T05:37:45.995Z,933.73
2018-05-10T05:38:54.058Z,933.78
2018-05-10T05:40:02.219Z,933.78
2018-05-10T05:41:10.235Z,933.75
2018-05-10T05:42:18.262Z,933.77
2018-05-10T05:43:26.313Z,933.77
2018-05-10T05:44:34.352Z,933.82
2018-05-10T05:45:42.655Z,933.85
2018-05-10T05:46:50.501Z,933.83
2018-05-10T05:47:58.564Z,933.89
2018-05-10T05:49:06.625Z,933.89
2018-05-10T05:50:14.685Z,933.88
2018-05-10T05:51:22.823Z,933.95
2018-05-10T05:52:30.810Z,933.96
2018-05-10T05:53:38.881Z,934.02
2018-05-10T05:54:46.933Z,934.03
2018-05-10T05:55:54.977Z,934.04
2018-05-10T05:57:03.151Z,934.01
2018-05-10T05:58:11.126Z,934.02
2018-05-10T05:59:19.159Z,934.04
2018-05-10T06:00:27.251Z,934.02
2018-05-10T06:01:35.311Z,934.09
2018-05-10T06:02:43.460Z,934.03
2018-05-10T06:03:51.424Z,934.08
2018-05-10T06:04:59.503Z,934.12
2018-05-10T06:06:07.559Z,934.12
2018-05-10T06:07:15.671Z,934.17
2018-05-10T06:08:23.780Z,934.19
2018-05-10T06:09:31.766Z,934.23
2018-05-10T06:10:39.807Z,934.33
2018-05-10T06:11:47.873Z,934.36
2018-05-10T06:12:55.951Z,934.35
2018-05-10T06:14:04.095Z,934.42
2018-05-10T06:15:12.038Z,934.42
2018-05-10T06:16:20.125Z,934.44
2018-05-10T06:17:28.186Z,934.40
2018-05-10T06:18:36.252Z,934.48
2018-05-10T06:19:44.424Z,934.55
2018-05-10T06:20:52.372Z,934.54
2018-05-10T06:22:00.443Z,934.60
2018-05-10T06:23:08.518Z,934.58
2018-05-10T06:24:16.593Z,934.52
2018-05-10T06:25:24.756Z,934.59
2018-05-10T06:26:32.713Z,934.65
2018-05-10T06:27:40.757Z,934.62
2018-05-10T06:28:48.850Z,934.71
2018-05-10T06:29:56.910Z,934.67
2018-05-10T06:31:05.060Z,934.63
2018-05-10T06:32:13.050Z,934.60
2018-05-10T06:33:21.106Z,934.60
2018-05-10T06:34:29.175Z,934.62
2018-05-10T06:35:37.250Z,934.66
2018-05-10T06:36:45.400Z,934.69
2018-05-10T06:37:53.361Z,934.73
2018-05-10T06:39:01.420Z,934.73
2018-05-10T06:40:09.529Z,934.76
2018-05-10T06:41:17.559Z,934.78
2018-05-10T06:42:25.722Z,934.72
2018-05-10T06:43:33.675Z,934.78
2018-05-10T06:44:41.739Z,934.72
2018-05-10T06:45:49.827Z,934.80
2018-05-10T06:46:58.008Z,934.80
2018-05-10T06:48:06.070Z,934.75
2018-05-10T06:49:14.018Z,934.80
2018-05-10T06:50:22.067Z,934.89
2018-05-10T06:51:30.160Z,934.91
2018-05-10T06:52:38.221Z,934.93
2018-05-10T06:53:46.404Z,934.91
2018-05-10T06:54:54.364Z,934.92
2018-05-10T06:56:02.411Z,934.91
2018-05-10T06:57:10.500Z,934.98
2018-05-10T06:58:18.563Z,934.97
2018-05-10T06:59:26.719Z,934.98
2018-05-10T07:00:34.704Z,935.01
2018-05-10T07:01:42.766Z,935.07
2018-05-10T07:02:50.797Z,935.06
2018-05-10T07:03:58.906Z,935.08
2018-05-10T07:05:07.041Z,935.07
2018-05-10T07:06:15.017Z,935.08
2018-05-10T07:07:23.081Z,935.10
2018-05-10T07:08:31.143Z,935.10
2018-05-10T07:09:39.427Z,935.14
2018-05-10T07:10:48.228Z,935.13
2018-05-10T07:11:55.338Z,935.13
2018-05-10T07:13:03.412Z,935.15
2018-05-10T07:14:11.451Z,935.16
2018-05-10T07:15:19.569Z,935.21
2018-05-10T07:16:27.707Z,935.22
2018-05-10T07:17:35.700Z,935.21
2018-05-10T07:18:43.739Z,935.23
2018-05-10T07:19:51.801Z,935.31
2018-05-10T07:20:59.870Z,935.25
2018-05-10T07:22:08.043Z,935.29
2018-05-10T07:23:16.015Z,935.32
2018-05-10T07:24:24.062Z,935.30
2018-05-10T07:25:32.112Z,935.34
2018-05-10T07:26:40.228Z,935.32
2018-05-10T07:27:48.368Z,935.34
2018-05-10T07:28:56.337Z,935.30
2018-05-10T07:30:04.494Z,935.34
2018-05-10T07:31:12.468Z,935.38
2018-05-10T07:32:20.523Z,935.37
2018-05-10T07:33:28.709Z,935.38
2018-05-10T07:34:36.677Z,935.39
2018-05-10T07:35:44.753Z,935.41
2018-05-10T07:36:52.813Z,935.44
2018-05-10T07:38:00.869Z,935.42
2018-05-10T07:39:09.028Z,935.49
2018-05-10T07:40:17.015Z,935.45
2018-05-10T07:41:25.072Z,935.52
2018-05-10T07:42:33.129Z,935.52
2018-05-10T07:43:41.209Z,935.60
2018-05-10T07:44:49.391Z,935.65
2018-05-10T07:45:57.330Z,935.67
2018-05-10T07:47:05.405Z,935.65
2018-05-10T07:48:13.468Z,935.66
2018-05-10T07:49:21.509Z,935.72
2018-05-10T07:50:29.689Z,935.70
2018-05-10T07:51:37.660Z,935.69
2018-05-10T07:52:45.712Z,935.74
2018-05-10T07:53:53.810Z,935.77
2018-05-10T07:55:01.873Z,935.80
2018-05-10T07:56:10.025Z,935.82
2018-05-10T07:57:17.996Z,935.80
2018-05-10T07:58:26.039Z,935.80
2018-05-10T07:59:34.128Z,935.82
2018-05-10T08:00:42.199Z,935.85
2018-05-10T08:01:50.356Z,935.95
2018-05-10T08:02:58.345Z,935.93
2018-05-10T08:04:06.397Z,935.95
2018-05-10T08:05:14.463Z,935.99
2018-05-10T08:06:22.520Z,935.97
2018-05-10T08:07:30.687Z,936.04
2018-05-10T08:08:38.671Z,936.04
2018-05-10T08:09:46.736Z,936.03
2018-05-10T08:10:54.790Z,936.03
2018-05-10T08:12:02.868Z,936.07
2018-05-10T08:13:11.023Z,936.07
2018-05-10T08:14:18.989Z,936.08
2018-05-10T08:15:27.052Z,936.06
2018-05-10T08:16:35.133Z,936.10
2018-05-10T08:17:43.188Z,936.13
2018-05-10T08:18:51.348Z,936.14
2018-05-10T08:19:59.303Z,936.14
2018-05-10T08:21:07.392Z,936.18
2018-05-10T08:22:15.453Z,936.18
2018-05-10T08:23:23.523Z,936.18
2018-05-10T08:24:31.658Z,936.18
2018-05-10T08:25:39.660Z,936.25
2018-05-10T08:26:47.739Z,936.30
2018-05-10T08:27:55.786Z,936.24
2018-05-10T08:29:03.857Z,936.24
2018-05-10T08:30:12.109Z,936.29
2018-05-10T08:31:19.970Z,936.30
2018-05-10T08:32:28.069Z,936.33
2018-05-10T08:33:36.119Z,936.31
2018-05-10T08:34:44.337Z,936.26
2018-05-10T08:35:52.340Z,936.32
2018-05-10T08:37:00.330Z,936.37
2018-05-10T08:38:08.396Z,936.36
2018-05-10T08:39:16.447Z,936.40
2018-05-10T08:40:24.526Z,936.40
2018-05-10T08:41:32.671Z,936.43
2018-05-10T08:42:40.654Z,936.43
2018-05-10T08:43:48.719Z,936.41
2018-05-10T08:44:56.851Z,936.45
2018-05-10T08:46:04.833Z,936.49
2018-05-10T08:47:13.008Z,936.47
2018-05-10T08:48:20.977Z,936.48
2018-05-10T08:49:29.044Z,936.48
2018-05-10T08:50:37.116Z,936.52
2018-05-10T08:51:45.205Z,936.52
2018-05-10T08:52:53.338Z,936.50
2018-05-10T08:54:01.308Z,936.51
2018-05-10T08:55:09.375Z,936.55
2018-05-10T08:56:17.438Z,936.55
2018-05-10T08:57:25.513Z,936.61
2018-05-10T08:58:33.676Z,936.62
2018-05-10T08:59:41.620Z,936.63
2018-05-10T09:00:49.708Z,936.67
2018-05-10T09:01:57.766Z,936.63
2018-05-10T09:03:05.831Z,936.66
2018-05-10T09:04:14.000Z,936.67
2018-05-10T09:05:22.002Z,936.67
2018-05-10T09:06:30.085Z,936.71
2018-05-10T09:07:38.095Z,936.72
2018-05-10T09:08:46.163Z,936.73
2018-05-10T09:09:54.325Z,936.69
2018-05-10T09:11:02.283Z,936.70
2018-05-10T09:12:10.349Z,936.71
2018-05-10T09:13:18.432Z,936.73
2018-05-10T09:14:26.486Z,936.72
2018-05-10T09:15:34.647Z,936.76
2018-05-10T09:16:42.625Z,936.73
2018-05-10T09:17:50.685Z,936.73
2018-05-10T09:18:58.750Z,936.81
2018-05-10T09:20:06.913Z,936.78
2018-05-10T09:21:14.984Z,936.79
2018-05-10T09:22:22.953Z,936.81
2018-05-10T09:23:31.003Z,936.78
2018-05-10T09:24:39.077Z,936.81
2018-05-10T09:25:47.147Z,936.79
2018-05-10T09:26:55.311Z,936.81
2018-05-10T09:28:03.277Z,936.82
2018-05-10T09:29:11.339Z,936.78
2018-05-10T09:30:19.416Z,936.80
2018-05-10T09:31:27.510Z,936.80
2018-05-10T09:32:35.636Z,936.81
2018-05-10T09:33:43.617Z,936.84
2018-05-10T09:34:51.638Z,936.89
2018-05-10T09:35:59.776Z,936.86
2018-05-10T09:37:07.793Z,936.88
2018-05-10T09:38:15.967Z,936.87
2018-05-10T09:39:23.996Z,936.87
2018-05-10T09:40:31.990Z,936.94
2018-05-10T09:41:40.080Z,936.92
2018-05-10T09:42:48.141Z,936.94
2018-05-10T09:43:56.307Z,936.91
2018-05-10T09:45:04.252Z,936.91
2018-05-10T09:46:12.329Z,936.96
2018-05-10T09:47:20.381Z,936.95
2018-05-10T09:48:28.460Z,936.97
2018-05-10T09:49:36.622Z,937.00
2018-05-10T09:50:44.572Z,937.01
2018-05-10T09:51:52.645Z,937.01
2018-05-10T09:53:00.723Z,937.04
2018-05-10T09:54:09.046Z,937.08
2018-05-10T09:55:17.081Z,937.06
2018-05-10T09:56:25.476Z,937.09
2018-05-10T09:57:33.003Z,937.05
2018-05-10T09:58:41.060Z,937.08
2018-05-10T09:59:49.264Z,937.09
2018-05-10T10:00:57.275Z,937.14
2018-05-10T10:02:05.261Z,937.14
2018-05-10T10:03:13.326Z,937.15
2018-05-10T10:04:21.732Z,937.16
2018-05-10T10:05:29.439Z,937.17
2018-05-10T10:06:37.823Z,937.18
2018-05-10T10:07:45.782Z,937.22
2018-05-10T10:08:53.648Z,937.19
2018-05-10T10:10:01.691Z,937.22
2018-05-10T10:11:09.770Z,937.17
2018-05-10T10:12:17.930Z,937.22
2018-05-10T10:13:25.896Z,937.26
2018-05-10T10:14:33.961Z,937.30
2018-05-10T10:15:42.079Z,937.32
2018-05-10T10:16:50.075Z,937.32
2018-05-10T10:17:58.252Z,937.32
2018-05-10T10:19:06.794Z,937.32
2018-05-10T10:20:14.302Z,937.28
2018-05-10T10:21:22.801Z,937.35
2018-05-10T10:22:30.882Z,937.33
2018-05-10T10:23:38.715Z,937.30
2018-05-10T10:24:46.545Z,937.35
2018-05-10T10:25:54.614Z,937.34
2018-05-10T10:27:02.691Z,937.32
2018-05-10T10:28:10.770Z,937.35
2018-05-10T10:29:18.900Z,937.36
2018-05-10T10:30:26.878Z,937.41
2018-05-10T10:31:34.949Z,937.43
2018-05-10T10:32:43.243Z,937.50
2018-05-10T10:33:51.062Z,937.51
2018-05-10T10:34:59.241Z,937.53
2018-05-10T10:36:07.206Z,937.58
2018-05-10T10:37:15.823Z,937.59
2018-05-10T10:38:23.308Z,937.54
2018-05-10T10:39:31.373Z,937.53
2018-05-10T10:40:39.563Z,937.50
2018-05-10T10:41:47.958Z,937.52
2018-05-10T10:42:56.153Z,937.55
2018-05-10T10:44:03.654Z,937.59
2018-05-10T10:45:11.705Z,937.58
2018-05-10T10:46:19.874Z,937.56
2018-05-10T10:47:29.335Z,937.57
2018-05-10T10:48:35.911Z,937.59
2018-05-10T10:49:43.978Z,937.60
2018-05-10T10:50:52.019Z,937.58
2018-05-10T10:52:00.240Z,937.66
2018-05-10T10:53:08.173Z,937.60
2018-05-10T10:54:16.251Z,937.53
2018-05-10T10:55:24.294Z,937.51
2018-05-10T10:56:32.379Z,937.52
2018-05-10T10:57:40.559Z,937.56
2018-05-10T10:58:48.509Z,937.60
2018-05-10T10:59:57.300Z,937.55
2018-05-10T11:01:04.825Z,937.58
2018-05-10T11:02:12.715Z,937.57
2018-05-10T11:03:20.876Z,937.56
2018-05-10T11:04:28.853Z,937.54
2018-05-10T11:05:36.905Z,937.50
2018-05-10T11:06:45.007Z,937.50
2018-05-10T11:07:53.047Z,937.58
2018-05-10T11:09:01.201Z,937.66
2018-05-10T11:10:09.193Z,937.66
2018-05-10T11:11:17.482Z,937.73
2018-05-10T11:12:25.693Z,937.70
2018-05-10T11:13:33.382Z,937.76
2018-05-10T11:14:41.905Z,937.76
2018-05-10T11:15:49.496Z,937.75
2018-05-10T11:16:57.555Z,937.68
2018-05-10T11:18:05.648Z,937.64
2018-05-10T11:19:13.716Z,937.66
2018-05-10T11:20:22.492Z,937.72
2018-05-10T11:21:29.829Z,937.65
2018-05-10T11:22:37.944Z,937.66
2018-05-10T11:23:45.934Z,937.68
2018-05-10T11:24:54.029Z,937.66
2018-05-10T11:26:02.847Z,937.72
2018-05-10T11:27:10.154Z,937.66
2018-05-10T11:28:18.227Z,937.64
2018-05-10T11:29:26.318Z,937.65
2018-05-10T11:30:34.626Z,937.66
2018-05-10T11:31:43.726Z,937.71
2018-05-10T11:32:50.877Z,937.72
2018-05-10T11:33:58.540Z,937.80
2018-05-10T11:35:06.629Z,937.79
2018-05-10T11:36:15.172Z,937.88
2018-05-10T11:37:23.574Z,937.84
2018-05-10T11:38:30.793Z,937.84
2018-05-10T11:39:38.863Z,937.80
2018-05-10T11:40:47.319Z,937.74
2018-05-10T11:41:55.290Z,937.83
2018-05-10T11:43:03.764Z,937.84
2018-05-10T11:44:11.136Z,937.90
2018-05-10T11:45:19.222Z,937.85
2018-05-10T11:46:27.280Z,937.84
2018-05-10T11:47:35.694Z,937.83
2018-05-10T11:48:43.778Z,937.88
2018-05-10T11:49:52.843Z,937.94
2018-05-10T11:51:00.090Z,937.89
2018-05-10T11:52:08.232Z,937.85
2018-05-10T11:53:15.977Z,937.84
2018-05-10T11:54:24.387Z,937.91
2018-05-10T11:55:31.811Z,938.00
2018-05-10T11:56:39.878Z,937.97
2018-05-10T11:57:48.087Z,937.94
2018-05-10T11:58:56.259Z,937.85
2018-05-10T12:00:04.170Z,937.89
2018-05-10T12:01:12.104Z,937.78
2018-05-10T12:02:20.385Z,937.78
2018-05-10T12:03:28.264Z,937.76
2018-05-10T12:04:36.363Z,937.79
2018-05-10T12:05:44.925Z,937.91
2018-05-10T12:06:52.759Z,937.93
2018-05-10T12:08:00.538Z,937.91
2018-05-10T12:09:08.641Z,938.04
2018-05-10T12:10:16.909Z,938.02
2018-05-10T12:11:25.204Z,937.98
2018-05-10T12:12:32.952Z,938.09
2018-05-10T12:13:41.085Z,938.04
2018-05-10T12:14:49.173Z,937.92
2018-05-10T12:15:57.334Z,937.99
2018-05-10T12:17:05.566Z,938.09
2018-05-10T12:18:13.498Z,938.05
2018-05-10T12:19:21.459Z,938.04
2018-05-10T12:20:29.544Z,937.92
2018-05-10T12:21:37.342Z,937.90
2018-05-10T12:22:45.519Z,937.90
2018-05-10T12:23:53.496Z,937.92
2018-05-10T12:25:01.529Z,937.90
2018-05-10T12:26:09.868Z,937.98
2018-05-10T12:27:17.923Z,938.04
2018-05-10T12:28:26.509Z,938.02
2018-05-10T12:29:34.177Z,938.09
2018-05-10T12:30:42.060Z,938.20
2018-05-10T12:31:49.953Z,938.25
2018-05-10T12:32:58.306Z,938.29
2018-05-10T12:34:07.153Z,938.28
2018-05-10T12:35:14.451Z,938.20
2018-05-10T12:36:22.205Z,938.22
2018-05-10T12:37:30.305Z,938.15
2018-05-10T12:38:38.479Z,938.20
2018-05-10T12:39:46.837Z,938.13
2018-05-10T12:40:54.489Z,938.13
2018-05-10T12:42:02.553Z,938.17
2018-05-10T12:43:10.667Z,938.20
2018-05-10T12:44:18.696Z,938.29
2018-05-10T12:45:26.855Z,938.22
2018-05-10T12:46:34.959Z,938.15
2018-05-10T12:47:43.135Z,938.15
2018-05-10T12:48:50.993Z,938.20
2018-05-10T12:49:59.182Z,938.33
2018-05-10T12:51:07.196Z,938.25
2018-05-10T12:52:15.156Z,938.25
2018-05-10T12:53:23.323Z,938.28
2018-05-10T12:54:31.295Z,938.27
2018-05-10T12:55:39.774Z,938.35
2018-05-10T12:56:47.524Z,938.33
2018-05-10T12:57:55.504Z,938.22
2018-05-10T12:59:03.823Z,938.22
2018-05-10T13:00:11.621Z,938.27
2018-05-10T13:01:19.696Z,938.27
2018-05-10T13:02:28.536Z,938.20
2018-05-10T13:03:35.848Z,938.32
2018-05-10T13:04:44.235Z,938.18
2018-05-10T13:05:51.964Z,938.20
2018-05-10T13:07:00.048Z,938.25
2018-05-10T13:08:11.859Z,938.25
2018-05-10T13:09:16.492Z,938.28
2018-05-10T13:10:24.250Z,938.27
2018-05-10T13:11:32.313Z,938.28
2018-05-10T13:12:40.396Z,938.28
2018-05-10T13:13:48.559Z,938.25
2018-05-10T13:14:56.525Z,938.31
2018-05-10T13:16:04.664Z,938.32
2018-05-10T13:17:12.669Z,938.32
2018-05-10T13:18:20.724Z,938.30
2018-05-10T13:19:29.593Z,938.22
2018-05-10T13:20:36.863Z,938.15
2018-05-10T13:21:45.017Z,938.16
2018-05-10T13:22:53.231Z,938.17
2018-05-10T13:24:01.351Z,938.23
2018-05-10T13:25:09.655Z,938.21
2018-05-10T13:26:17.462Z,938.22
2018-05-10T13:27:25.403Z,938.24
2018-05-10T13:28:33.650Z,938.28
2018-05-10T13:29:41.699Z,938.38
2018-05-10T13:30:49.950Z,938.38
2018-05-10T13:31:57.786Z,938.45
2018-05-10T13:33:05.861Z,938.53
2018-05-10T13:34:13.766Z,938.51
2018-05-10T13:35:21.695Z,938.59
2018-05-10T13:36:30.565Z,938.61
2018-05-10T13:37:38.238Z,938.63
2018-05-10T13:38:45.928Z,938.65
2018-05-10T13:39:53.981Z,938.73
2018-05-10T13:41:02.035Z,938.77
2018-05-10T13:42:10.304Z,938.79
2018-05-10T13:43:18.201Z,938.72
2018-05-10T13:44:26.245Z,938.76
2018-05-10T13:45:34.333Z,938.76
2018-05-10T13:46:42.390Z,938.84
2018-05-10T13:47:50.677Z,938.78
2018-05-10T13:48:58.526Z,938.77
2018-05-10T13:50:06.605Z,938.79
2018-05-10T13:51:14.650Z,938.86
2018-05-10T13:52:22.731Z,938.86
2018-05-10T13:53:30.914Z,938.84
2018-05-10T13:54:38.868Z,938.78
2018-05-10T13:55:46.936Z,938.79
2018-05-10T13:56:55.110Z,938.78
2018-05-10T13:58:03.070Z,938.73
2018-05-10T13:59:11.231Z,938.71
2018-05-10T14:00:19.205Z,938.75
2018-05-10T14:01:27.280Z,938.81
2018-05-10T14:02:35.331Z,938.93
2018-05-10T14:03:43.408Z,938.91
2018-05-10T14:04:51.553Z,938.95
2018-05-10T14:05:59.530Z,938.96
2018-05-10T14:07:07.595Z,938.94
2018-05-10T14:08:15.680Z,938.95
2018-05-10T14:09:23.748Z,939.00